Atlanta Naval Air Station, Georgia
Current Conditions -  °F | °C
As of 7:58 PM on Friday 24 Oct 2014 (Local Time) from KMGE Reporting Station
Clear Clear  
Wind Chill: 61°   Ceiling: Unl
Heat Index: 61°   Visibility: 10mi
Dew Point: 42°   Wind: 3mph
Humidity: 50%   Direction: 310°NW
Pressure: 30.03"   Gusts: NA
Location:  33.9252°N, 84.5422°W
Report Text: KMGE 242358Z 31003KT 10SM CLR 16/06 A3003 RMK AO2A SLP169 T01600057 10230 20155 53005 $
Loading
Personal Weather Stations






























Interactive Weather Map
Tropical Storm Tracking
New forecast layout! Learn more

10-Day Weather Forecast

Advertisements
Track Severe Weather on mobile